Pasinler, Turkey
Current Conditions -  °F | °C
As of 8:20 AM on Thursday 23 Oct 2014 (Local Time) from LTCE Reporting Station
Clear Clear  
Wind Chill:   Ceiling: Unl
Heat Index:   Visibility: 5mi
Dew Point:   Wind: 0mph
Humidity: 87%   Direction: NA
Pressure: 30.21"   Gusts: NA
Location:  39.99°N, 41.69°E
Report Text: LTCE 230520Z 00000KT 8000 NSC 04/02 Q1023 NOSIG
Loading
Personal Weather Stations






























Interactive Weather Map
Tropical Storm Tracking
New forecast layout! Learn more

10-Day Weather Forecast

Advertisements
Track Severe Weather on mobile